Brenes, Spain
Current Conditions -  °F | °C
As of 12:30 AM on Sunday 23 Nov 2014 (Local Time) from LEZL Reporting Station
Clear Clear  
Wind Chill: 16°   Ceiling: Unl
Heat Index: 16°   Visibility: 6mi
Dew Point: 13°   Wind: 0mph
Humidity: 82%   Direction: NA
Pressure: 29.74"   Gusts: NA
Location:  37.55°N, 5.87°W
Report Text: LEZL 222330Z 00000KT CAVOK 16/13 Q1007 NOSIG
Loading
Personal Weather Stations






























Interactive Weather Map New forecast layout! Learn more

10-Day Weather Forecast

Advertisements
Track Severe Weather on mobile